Latest Coastal Weather Observations for Croker Island Airport

IDD60701

Issued at 8:11 pm CST Sunday 29 March 2015 (issued every 10 minutes, with the page automatically refreshed every 10 minutes)

About coastal observations | Map of coastal stations | Coastal observations for NT | Marine services | Other Formats
Station Details ID: 014308 Name: CROKER ISLAND AIRPORT Lat: -11.16 Lon: 132.48 Height: 9.2 m
Data from the previous 72 hours. | See also: Recent months for locations in Northern Territory
Date/Time
CST
Temp

°C
Wind Pressure Rain
since 9am
mm
Weather Cloud Vis
km
Sea
Height
m
Swell
Dir
 
Speed
knots
Gust
knots
hPa Trend Height
m
Period
s
Dir
29/08:00pm - E 3 4 1012.1 - - - - - - - - -
29/07:30pm - E 4 6 1011.6 - - - - - - - - -
29/07:00pm - E 5 8 1011.2 - - - - - - - - -
29/06:30pm - E 7 12 1011.0 - - - - - - - - -
29/06:00pm - E 10 15 1010.8 - - - - - - - - -
29/05:30pm - E 10 15 1010.6 - - - - - - - - -
29/05:00pm - E 9 17 1010.6 - - - - - - - - -
29/04:30pm - E 9 14 1010.4 - - - - - - - - -
29/04:00pm - E 10 13 1010.3 - - - - - - - - -
29/03:30pm - ESE 9 16 1010.2 - - - - - - - - -
29/03:00pm - ESE 10 14 1010.5 - - - - - - - - -
29/02:30pm - E 10 15 1010.6 - - - - - - - - -
29/02:00pm - E 9 15 1010.9 - - - - - - - - -
29/01:30pm - ENE 9 14 1011.2 - - - - - - - - -
29/01:00pm - E 8 13 1011.5 - - - - - - - - -
29/12:30pm - ENE 9 14 1011.9 - - - - - - - - -
29/12:00pm - ENE 8 13 1012.4 - - - - - - - - -
29/11:30am - ENE 9 14 1012.8 - - - - - - - - -
29/11:00am - ENE 9 14 1013.1 - - - - - - - - -
29/10:30am - E 7 11 1013.2 - - - - - - - - -
29/10:00am - E 8 12 1013.1 - - - - - - - - -
29/09:30am - E 7 12 1012.9 - - - - - - - - -
29/09:00am - E 9 12 1012.7 - - - - - - - - -
29/08:30am - E 6 9 1012.7 - - - - - - - - -
29/08:00am - E 4 6 1012.4 - - - - - - - - -
29/07:30am - E 3 4 1012.1 - - - - - - - - -
29/07:00am - E 4 5 1011.9 - - - - - - - - -
29/06:30am - E 3 4 1011.6 - - - - - - - - -
29/06:00am - E 3 3 1011.2 - - - - - - - - -
29/05:30am - ENE 4 5 1011.0 - - - - - - - - -
29/05:00am - E 3 3 1010.8 - - - - - - - - -
29/04:30am - E 4 5 1010.6 - - - - - - - - -
29/04:00am - E 3 3 1010.6 - - - - - - - - -
29/03:30am - E 2 3 1010.8 - - - - - - - - -
29/03:00am - E 3 4 1010.9 - - - - - - - - -
29/02:30am - ENE 4 5 1011.1 - - - - - - - - -
29/02:00am - ENE 4 5 1011.3 - - - - - - - - -
29/01:30am - ENE 4 5 1011.7 - - - - - - - - -
29/01:00am - ENE 3 4 1012.3 - - - - - - - - -
29/12:30am - ENE 3 3 1012.5 - - - - - - - - -
29/12:00am - ENE 3 3 1012.8 - - - - - - - - -
 
Date/Time
CST
Temp

°C
Wind Pressure Rain
since 9am
mm
Weather Cloud Vis
km
Sea
Height
m
Swell
Dir
 
Speed
knots
Gust
knots
hPa Trend Height
m
Period
s
Dir
28/11:30pm - E 3 4 1012.9 - - - - - - - - -
28/11:00pm - E 3 3 1013.0 - - - - - - - - -
28/10:30pm - E 3 3 1012.9 - - - - - - - - -
28/10:00pm - E 3 4 1012.8 - - - - - - - - -
28/09:30pm - E 2 3 1012.8 - - - - - - - - -
28/09:00pm - E 2 3 1012.4 - - - - - - - - -
28/08:30pm - E 3 3 1012.2 - - - - - - - - -
28/08:00pm - E 2 3 1011.9 - - - - - - - - -
28/07:30pm - E 2 3 1011.4 - - - - - - - - -
28/07:00pm - ENE 2 4 1011.2 - - - - - - - - -
28/06:30pm - ENE 4 5 1010.9 - - - - - - - - -
28/06:00pm - ENE 4 7 1010.8 - - - - - - - - -
28/05:30pm - E 5 8 1010.7 - - - - - - - - -
28/05:00pm - E 6 10 1010.4 - - - - - - - - -
28/04:30pm - E 7 9 1010.5 - - - - - - - - -
28/04:00pm - ENE 6 9 1010.4 - - - - - - - - -
28/03:30pm - ENE 7 11 1010.4 - - - - - - - - -
28/03:00pm - E 7 11 1010.2 - - - - - - - - -
28/02:30pm - E 5 9 1010.7 - - - - - - - - -
28/02:00pm - E 6 9 1011.2 - - - - - - - - -
28/01:30pm - ESE 4 6 1011.6 - - - - - - - - -
28/01:00pm - W 1 3 1012.0 - - - - - - - - -
28/12:30pm - SW 3 6 1012.5 - - - - - - - - -
28/12:00pm - NNW 3 8 1012.8 - - - - - - - - -
28/11:30am - NNE 1 5 1013.0 - - - - - - - - -
28/11:00am - NNE 3 5 1013.2 - - - - - - - - -
28/10:30am - NNE 3 5 1013.3 - - - - - - - - -
28/10:00am - NE 2 5 1013.4 - - - - - - - - -
28/09:30am - E 3 4 1013.4 - - - - - - - - -
28/09:00am - E 1 3 1013.3 - - - - - - - - -
28/08:30am - ENE 2 3 1013.0 - - - - - - - - -
28/08:00am - E 1 2 1012.8 - - - - - - - - -
28/07:30am - E 2 3 1012.6 - - - - - - - - -
28/07:00am - E 2 3 1012.1 - - - - - - - - -
28/06:30am - ENE 2 2 1011.8 - - - - - - - - -
28/06:00am - ENE 2 3 1011.3 - - - - - - - - -
28/05:30am - E 3 4 1011.2 - - - - - - - - -
28/05:00am - ESE 3 4 1011.2 - - - - - - - - -
28/04:30am - SSW 1 2 1011.0 - - - - - - - - -
28/04:00am - WNW 2 3 1010.9 - - - - - - - - -
28/03:30am - W 3 4 1010.9 - - - - - - - - -
28/03:00am - CALM 0 0 1011.4 - - - - - - - - -
28/02:30am - CALM 0 0 1011.8 - - - - - - - - -
28/02:00am - CALM 0 0 1012.3 - - - - - - - - -
28/01:30am - CALM 0 0 1012.6 - - - - - - - - -
28/01:00am - CALM 0 0 1012.8 - - - - - - - - -
28/12:30am - CALM 0 0 1013.1 - - - - - - - - -
28/12:00am - CALM 0 0 1013.5 - - - - - - - - -
 
Date/Time
CST
Temp

°C
Wind Pressure Rain
since 9am
mm
Weather Cloud Vis
km
Sea
Height
m
Swell
Dir
 
Speed
knots
Gust
knots
hPa Trend Height
m
Period
s
Dir
27/11:30pm - CALM 0 1 1013.7 - - - - - - - - -
27/11:00pm - E 2 2 1013.9 - - - - - - - - -
27/10:30pm - ENE 1 2 1013.8 - - - - - - - - -
27/10:00pm - CALM 0 0 1013.8 - - - - - - - - -
27/09:30pm - CALM 0 1 1013.8 - - - - - - - - -
27/09:00pm - CALM 0 0 1013.6 - - - - - - - - -
27/08:30pm - CALM 0 0 1013.5 - - - - - - - - -
27/08:00pm - N 1 2 1013.0 - - - - - - - - -
27/07:30pm - NNW 2 3 1012.3 - - - - - - - - -
27/07:00pm - NW 2 3 1011.9 - - - - - - - - -
27/06:30pm - NW 3 3 1011.6 - - - - - - - - -
27/06:00pm - WNW 3 5 1011.2 - - - - - - - - -
27/05:30pm - NW 4 6 1010.8 - - - - - - - - -
27/05:00pm - NNW 4 6 1010.7 - - - - - - - - -
27/04:30pm - NNW 4 6 1010.6 - - - - - - - - -
27/04:00pm - NW 5 7 1010.7 - - - - - - - - -
27/03:30pm - NW 4 6 1010.9 - - - - - - - - -
27/03:00pm - W 4 6 1011.1 - - - - - - - - -
27/02:30pm - N 3 4 1011.3 - - - - - - - - -
27/02:00pm - WNW 2 4 1011.8 - - - - - - - - -
27/01:30pm - NNW 3 6 1012.4 - - - - - - - - -
27/01:00pm - NW 6 8 1013.1 - - - - - - - - -
27/12:30pm - NW 6 11 1013.3 - - - - - - - - -
27/12:00pm - NNW 9 16 1013.9 - - - - - - - - -
27/11:30am - N 6 9 1014.3 - - - - - - - - -
27/11:00am - NNE 4 8 1014.7 - - - - - - - - -
27/10:30am - NNE 5 7 1015.0 - - - - - - - - -
27/10:00am - NE 5 8 1015.2 - - - - - - - - -
27/09:30am - NE 5 7 1015.4 - - - - - - - - -
27/09:00am - NE 5 7 1015.5 - - - - - - - - -
27/08:30am - NE 3 5 1015.3 - - - - - - - - -
27/08:00am - NE 2 3 1014.7 - - - - - - - - -
27/07:30am - ENE 3 3 1014.1 - - - - - - - - -
27/07:00am - ENE 2 3 1013.7 - - - - - - - - -
27/06:30am - NE 3 3 1013.3 - - - - - - - - -
27/06:00am - NE 2 3 1012.9 - - - - - - - - -
27/05:30am - NE 3 4 1012.5 - - - - - - - - -
27/05:00am - NE 3 5 1012.3 - - - - - - - - -
27/04:30am - NE 3 4 1012.3 - - - - - - - - -
27/04:00am - ENE 3 4 1012.6 - - - - - - - - -
27/03:30am - ENE 4 5 1012.7 - - - - - - - - -
27/03:00am - ENE 3 5 1013.0 - - - - - - - - -
27/02:30am - ENE 4 6 1013.2 - - - - - - - - -
27/02:00am - ENE 5 9 1013.4 - - - - - - - - -
27/01:30am - NE 3 5 1013.8 - - - - - - - - -
27/01:00am - ENE 4 5 1013.9 - - - - - - - - -
27/12:30am - ENE 5 7 1014.0 - - - - - - - - -
27/12:00am - ENE 4 6 1014.3 - - - - - - - - -
 
Date/Time
CST
Temp

°C
Wind Pressure Rain
since 9am
mm
Weather Cloud Vis
km
Sea
Height
m
Swell
Dir
 
Speed
knots
Gust
knots
hPa Trend Height
m
Period
s
Dir
26/11:30pm - NE 5 8 1014.5 - - - - - - - - -
26/11:00pm - NE 5 7 1014.5 - - - - - - - - -
26/10:30pm - NNE 7 10 1014.4 - - - - - - - - -
26/10:00pm - NNE 7 10 1014.0 - - - - - - - - -
26/09:30pm - NE 6 9 1014.1 - - - - - - - - -
26/09:00pm - NE 6 10 1014.0 - - - - - - - - -
26/08:30pm - NE 5 8 1013.7 - - - - - - - - -

Other Formats:

Comma delimited format used in spreadsheet applications
http://www.bom.gov.au/fwo/IDD60701/IDD60701.94108.axf

JavaScript Object Notation format (JSON) in row-major order
http://www.bom.gov.au/fwo/IDD60701/IDD60701.94108.json